createdAt,value
2024-04-21T00:00:23.222Z,95675.56
2024-04-21T00:02:52.806Z,95675.47
2024-04-21T00:05:19.648Z,95679.59
2024-04-21T00:07:49.246Z,95676.88
2024-04-21T00:10:16.451Z,95675.63
2024-04-21T00:12:48.732Z,95675.00
2024-04-21T00:15:15.724Z,95678.84
2024-04-21T00:17:45.397Z,95670.91
2024-04-21T00:20:12.722Z,95662.69
2024-04-21T00:22:42.274Z,95670.75
2024-04-21T00:25:09.156Z,95657.13
2024-04-21T00:27:38.779Z,95659.22
2024-04-21T00:30:12.211Z,95656.69
2024-04-21T00:32:41.851Z,95650.78
2024-04-21T00:35:08.753Z,95652.38
2024-04-21T00:37:38.290Z,95652.38
2024-04-21T00:40:05.957Z,95651.47
2024-04-21T00:42:35.393Z,95643.97
2024-04-21T00:45:02.306Z,95638.00
2024-04-21T00:47:34.509Z,95644.34
2024-04-21T00:50:01.404Z,95641.06
2024-04-21T00:52:31.442Z,95633.97
2024-04-21T00:54:58.859Z,95636.59
2024-04-21T00:57:28.487Z,95627.13
2024-04-21T00:59:55.341Z,95628.97
2024-04-21T01:02:24.797Z,95630.84
2024-04-21T01:04:54.299Z,95622.72
2024-04-21T01:07:23.842Z,95624.25
2024-04-21T01:09:50.840Z,95627.19
2024-04-21T01:12:20.270Z,95622.91
2024-04-21T01:14:47.243Z,95620.78
2024-04-21T01:17:16.767Z,95626.69
2024-04-21T01:19:43.847Z,95622.13
2024-04-21T01:22:15.996Z,95613.31
2024-04-21T01:24:45.670Z,95608.22
2024-04-21T01:27:15.151Z,95609.31
2024-04-21T01:29:42.221Z,95604.06
2024-04-21T01:32:20.980Z,95603.84
2024-04-21T01:34:48.579Z,95594.09
2024-04-21T01:37:19.530Z,95589.25
2024-04-21T01:39:49.057Z,95597.56
2024-04-21T01:42:18.782Z,95591.09
2024-04-21T01:44:45.692Z,95590.31
2024-04-21T01:47:15.281Z,95589.94
2024-04-21T01:49:42.215Z,95599.13
2024-04-21T01:52:11.897Z,95590.31
2024-04-21T01:54:38.762Z,95588.19
2024-04-21T01:57:10.940Z,95583.59
2024-04-21T01:59:37.758Z,95581.63
2024-04-21T02:02:07.795Z,95572.91
2024-04-21T02:04:37.466Z,95576.50
2024-04-21T02:07:06.692Z,95570.38
2024-04-21T02:09:36.529Z,95574.56
2024-04-21T02:12:03.989Z,95562.09
2024-04-21T02:14:36.559Z,95565.09
2024-04-21T02:17:03.707Z,95573.03
2024-04-21T02:19:33.330Z,95564.00
2024-04-21T02:22:00.545Z,95558.13
2024-04-21T02:24:30.095Z,95556.25
2024-04-21T02:26:57.343Z,95555.34
2024-04-21T02:29:26.790Z,95548.63
2024-04-21T02:31:56.397Z,95547.81
2024-04-21T02:34:25.859Z,95550.56
2024-04-21T02:36:53.021Z,95549.31
2024-04-21T02:39:22.476Z,95548.09
2024-04-21T02:41:49.450Z,95546.47
2024-04-21T02:44:18.985Z,95542.31
2024-04-21T02:46:47.360Z,95542.88
2024-04-21T02:49:19.904Z,95541.25
2024-04-21T02:51:47.134Z,95538.63
2024-04-21T02:54:16.689Z,95536.03
2024-04-21T02:56:43.662Z,95538.31
2024-04-21T02:59:13.113Z,95528.84
2024-04-21T03:01:40.167Z,95531.31
2024-04-21T03:04:09.904Z,95533.56
2024-04-21T03:06:39.430Z,95525.56
2024-04-21T03:09:09.026Z,95518.72
2024-04-21T03:11:36.011Z,95523.13
2024-04-21T03:14:05.700Z,95512.13
2024-04-21T03:16:33.340Z,95512.13
2024-04-21T03:19:05.152Z,95512.50
2024-04-21T03:21:32.034Z,95511.47
2024-04-21T03:24:04.208Z,95504.44
2024-04-21T03:26:31.084Z,95503.19
2024-04-21T03:29:00.754Z,95502.50
2024-04-21T03:31:27.619Z,95503.78
2024-04-21T03:33:57.316Z,95498.63
2024-04-21T03:36:24.162Z,95498.53
2024-04-21T03:38:53.852Z,95489.38
2024-04-21T03:41:26.008Z,95486.22
2024-04-21T03:43:55.692Z,95482.22
2024-04-21T03:46:25.386Z,95478.31
2024-04-21T03:48:52.541Z,95473.75
2024-04-21T03:51:22.024Z,95484.66
2024-04-21T03:53:48.907Z,95473.72
2024-04-21T03:56:19.112Z,95478.47
2024-04-21T03:58:48.560Z,95477.00
2024-04-21T04:01:18.328Z,95479.06
2024-04-21T04:03:45.514Z,95476.31
2024-04-21T04:06:15.127Z,95475.69
2024-04-21T04:08:41.979Z,95478.38
2024-04-21T04:11:11.474Z,95471.84
2024-04-21T04:13:38.315Z,95476.00
2024-04-21T04:16:10.556Z,95473.22
2024-04-21T04:18:37.428Z,95467.69
2024-04-21T04:21:07.325Z,95475.19
2024-04-21T04:23:34.163Z,95477.84
2024-04-21T04:26:03.752Z,95472.97
2024-04-21T04:28:30.618Z,95468.88
2024-04-21T04:31:00.237Z,95465.69
2024-04-21T04:33:29.747Z,95470.00
2024-04-21T04:35:59.725Z,95466.28
2024-04-21T04:38:26.603Z,95467.34
2024-04-21T04:40:56.208Z,95460.41
2024-04-21T04:43:23.154Z,95462.47
2024-04-21T04:45:53.871Z,95457.38
2024-04-21T04:48:20.781Z,95457.59
2024-04-21T04:50:53.056Z,95453.94
2024-04-21T04:53:19.910Z,95446.13
2024-04-21T04:55:50.225Z,95442.53
2024-04-21T04:58:17.080Z,95443.56
2024-04-21T05:00:47.624Z,95442.25
2024-04-21T05:03:14.748Z,95442.25
2024-04-21T05:05:44.351Z,95442.56
2024-04-21T05:08:13.846Z,95445.84
2024-04-21T05:10:43.786Z,95449.75
2024-04-21T05:13:10.686Z,95448.78
2024-04-21T05:15:40.111Z,95442.97
2024-04-21T05:18:07.262Z,95452.38
2024-04-21T05:20:36.811Z,95440.41
2024-04-21T05:23:04.456Z,95440.19
2024-04-21T05:25:36.573Z,95439.06
2024-04-21T05:28:04.007Z,95445.56
2024-04-21T05:30:33.530Z,95437.50
2024-04-21T05:33:00.490Z,95430.66
2024-04-21T05:35:29.986Z,95437.00
2024-04-21T05:37:56.991Z,95433.44
2024-04-21T05:40:26.664Z,95431.56
2024-04-21T05:42:56.484Z,95427.44
2024-04-21T05:45:26.098Z,95425.47
2024-04-21T05:47:53.075Z,95428.94
2024-04-21T05:50:22.688Z,95422.75
2024-04-21T05:52:49.565Z,95423.56
2024-04-21T05:55:19.102Z,95428.72
2024-04-21T05:57:46.098Z,95430.22
2024-04-21T06:00:18.986Z,95427.28
2024-04-21T06:02:45.875Z,95419.81
2024-04-21T06:05:15.467Z,95419.66
2024-04-21T06:07:42.434Z,95416.91
2024-04-21T06:10:11.992Z,95415.69
2024-04-21T06:12:38.864Z,95409.00
2024-04-21T06:15:09.127Z,95405.28
2024-04-21T06:17:38.639Z,95407.41
2024-04-21T06:20:09.700Z,95414.31
2024-04-21T06:22:36.545Z,95420.25
2024-04-21T06:25:06.092Z,95408.81
2024-04-21T06:27:34.574Z,95404.22
2024-04-21T06:30:04.559Z,95407.66
2024-04-21T06:32:31.481Z,95400.38
2024-04-21T06:35:04.644Z,95400.53
2024-04-21T06:37:32.096Z,95396.88
2024-04-21T06:40:01.742Z,95401.47
2024-04-21T06:42:28.623Z,95406.75
2024-04-21T06:44:58.174Z,95394.63
2024-04-21T06:47:27.919Z,95401.50
2024-04-21T06:49:57.999Z,95399.94
2024-04-21T06:52:27.671Z,95399.31
2024-04-21T06:54:57.208Z,95390.75
2024-04-21T06:57:24.124Z,95390.88
2024-04-21T06:59:53.570Z,95392.94
2024-04-21T07:02:20.800Z,95388.19
2024-04-21T07:04:50.365Z,95388.41
2024-04-21T07:07:18.917Z,95394.28
2024-04-21T07:09:51.199Z,95384.16
2024-04-21T07:12:18.215Z,95381.53
2024-04-21T07:14:47.627Z,95385.88
2024-04-21T07:17:14.565Z,95387.78
2024-04-21T07:19:44.047Z,95390.13
2024-04-21T07:22:10.959Z,95389.16
2024-04-21T07:24:40.413Z,95388.69
2024-04-21T07:27:10.017Z,95387.72
2024-04-21T07:29:41.764Z,95390.16
2024-04-21T07:32:09.012Z,95392.44
2024-04-21T07:34:38.481Z,95380.06
2024-04-21T07:37:05.519Z,95376.56
2024-04-21T07:39:35.056Z,95389.28
2024-04-21T07:42:01.916Z,95385.72
2024-04-21T07:44:34.189Z,95377.63
2024-04-21T07:47:01.079Z,95382.25
2024-04-21T07:49:30.771Z,95374.75
2024-04-21T07:51:57.725Z,95381.59
2024-04-21T07:54:27.597Z,95373.91
2024-04-21T07:56:54.456Z,95373.09
2024-04-21T07:59:24.006Z,95378.69
2024-04-21T08:01:53.572Z,95370.47
2024-04-21T08:04:23.380Z,95368.13
2024-04-21T08:06:50.824Z,95380.31
2024-04-21T08:09:29.611Z,95379.34
2024-04-21T08:11:58.161Z,95378.66
2024-04-21T08:14:27.961Z,95395.44
2024-04-21T08:16:57.598Z,95389.09
2024-04-21T08:19:27.687Z,95393.22
2024-04-21T08:21:54.592Z,95381.19
2024-04-21T08:24:24.416Z,95385.09
2024-04-21T08:26:55.245Z,95385.97
2024-04-21T08:29:25.592Z,95380.97
2024-04-21T08:31:52.662Z,95386.69
2024-04-21T08:34:24.900Z,95374.09
2024-04-21T08:36:51.875Z,95390.00
2024-04-21T08:39:21.816Z,95387.31
2024-04-21T08:41:48.797Z,95391.72
2024-04-21T08:44:19.065Z,95371.06
2024-04-21T08:46:46.819Z,95376.53
2024-04-21T08:49:19.479Z,95380.31
2024-04-21T08:51:51.296Z,95384.06
2024-04-21T08:54:20.772Z,95385.50
2024-04-21T08:56:52.560Z,95379.13
2024-04-21T08:59:26.559Z,95372.84
2024-04-21T09:01:53.944Z,95371.78
2024-04-21T09:04:24.515Z,95373.50
2024-04-21T09:06:55.782Z,95381.47
2024-04-21T09:09:25.530Z,95380.44
2024-04-21T09:11:52.768Z,95383.56
2024-04-21T09:14:25.483Z,95371.78
2024-04-21T09:16:52.590Z,95376.28
2024-04-21T09:19:22.227Z,95379.88
2024-04-21T09:21:49.222Z,95385.34
2024-04-21T09:24:21.769Z,95392.16
2024-04-21T09:26:48.922Z,95392.94
2024-04-21T09:29:18.818Z,95389.97
2024-04-21T09:31:45.800Z,95388.69
2024-04-21T09:34:15.942Z,95392.03
2024-04-21T09:36:43.072Z,95397.28
2024-04-21T09:39:13.049Z,95400.19
2024-04-21T09:41:48.779Z,95396.03
2024-04-21T09:44:19.205Z,95394.88
2024-04-21T09:46:47.829Z,95394.41
2024-04-21T09:49:19.564Z,95389.16
2024-04-21T09:51:47.860Z,95385.56
2024-04-21T09:54:21.000Z,95398.41
2024-04-21T09:56:58.115Z,95396.56
2024-04-21T09:59:31.154Z,95398.59
2024-04-21T10:02:01.108Z,95393.94
2024-04-21T10:04:33.302Z,95384.44
2024-04-21T10:07:00.394Z,95398.13
2024-04-21T10:09:30.791Z,95394.50
2024-04-21T10:12:00.774Z,95393.22
2024-04-21T10:14:30.516Z,95388.09
2024-04-21T10:16:57.802Z,95398.66
2024-04-21T10:19:28.730Z,95399.13
2024-04-21T10:21:55.846Z,95401.28
2024-04-21T10:24:26.796Z,95404.03
2024-04-21T10:27:03.253Z,95400.31
2024-04-21T10:29:33.345Z,95399.59
2024-04-21T10:32:14.831Z,95399.25
2024-04-21T10:34:47.879Z,95402.22
2024-04-21T10:37:15.959Z,95408.47
2024-04-21T10:39:45.428Z,95402.25
2024-04-21T10:42:16.401Z,95399.94
2024-04-21T10:44:46.170Z,95398.81
2024-04-21T10:47:13.089Z,95398.06
2024-04-21T10:49:42.691Z,95400.94
2024-04-21T10:52:10.206Z,95400.53
2024-04-21T10:54:39.956Z,95394.28
2024-04-21T10:57:07.168Z,95404.06
2024-04-21T10:59:39.258Z,95404.72
2024-04-21T11:02:06.160Z,95391.38
2024-04-21T11:04:37.379Z,95391.38
2024-04-21T11:07:05.333Z,95390.81
2024-04-21T11:09:35.004Z,95394.25
2024-04-21T11:12:03.226Z,95392.75
2024-04-21T11:14:32.675Z,95388.47
2024-04-21T11:17:03.032Z,95394.06
2024-04-21T11:19:34.441Z,95391.78
2024-04-21T11:22:01.770Z,95398.47
2024-04-21T11:24:31.871Z,95396.28
2024-04-21T11:26:59.813Z,95398.31
2024-04-21T11:29:29.517Z,95397.88
2024-04-21T11:31:56.372Z,95391.53
2024-04-21T11:34:29.059Z,95393.38
2024-04-21T11:36:57.459Z,95397.44
2024-04-21T11:39:27.063Z,95394.97
2024-04-21T11:41:54.817Z,95386.03
2024-04-21T11:44:24.252Z,95385.00
2024-04-21T11:46:52.847Z,95389.56
2024-04-21T11:49:22.441Z,95391.22
2024-04-21T11:51:52.019Z,95393.44
2024-04-21T11:54:21.572Z,95385.84
2024-04-21T11:56:48.463Z,95396.88
2024-04-21T11:59:18.093Z,95393.72
2024-04-21T12:01:50.069Z,95393.38
2024-04-21T12:04:21.775Z,95405.34
2024-04-21T12:06:51.961Z,95398.16
2024-04-21T12:09:21.953Z,95394.56
2024-04-21T12:11:48.959Z,95397.53
2024-04-21T12:14:30.161Z,95398.09
2024-04-21T12:16:57.197Z,95403.19
2024-04-21T12:19:26.886Z,95404.16
2024-04-21T12:21:59.265Z,95401.66
2024-04-21T12:24:26.178Z,95394.69
2024-04-21T12:26:55.697Z,95396.50
2024-04-21T12:29:22.788Z,95402.25
2024-04-21T12:31:52.393Z,95394.72
2024-04-21T12:34:19.690Z,95382.50
2024-04-21T12:36:49.174Z,95388.72
2024-04-21T12:39:21.424Z,95384.88
2024-04-21T12:41:48.250Z,95384.09
2024-04-21T12:44:17.879Z,95392.31
2024-04-21T12:46:45.161Z,95399.38
2024-04-21T12:49:14.967Z,95400.50
2024-04-21T12:51:42.034Z,95400.13
2024-04-21T12:54:11.477Z,95400.56
2024-04-21T12:56:40.932Z,95397.78
2024-04-21T12:59:11.562Z,95390.47
2024-04-21T13:01:38.544Z,95392.59
2024-04-21T13:04:09.485Z,95392.06
2024-04-21T13:06:36.496Z,95389.13
2024-04-21T13:09:06.245Z,95387.34
2024-04-21T13:11:33.118Z,95379.97
2024-04-21T13:14:05.352Z,95391.97
2024-04-21T13:16:32.738Z,95387.28
2024-04-21T13:19:08.772Z,95390.00
2024-04-21T13:21:35.710Z,95385.63
2024-04-21T13:24:05.158Z,95388.38
2024-04-21T13:26:32.212Z,95391.97
2024-04-21T13:29:01.631Z,95401.72
2024-04-21T13:31:31.513Z,95393.00
2024-04-21T13:34:00.993Z,95392.41
2024-04-21T13:36:35.018Z,95395.53
2024-04-21T13:39:09.278Z,95399.09
2024-04-21T13:41:36.460Z,95395.34
2024-04-21T13:44:06.266Z,95407.72
2024-04-21T13:46:35.877Z,95402.97
2024-04-21T13:49:05.389Z,95408.69
2024-04-21T13:51:33.481Z,95404.81
2024-04-21T13:54:03.567Z,95418.94
2024-04-21T13:56:30.770Z,95419.00
2024-04-21T13:59:00.214Z,95418.09
2024-04-21T14:01:27.631Z,95415.09
2024-04-21T14:04:00.276Z,95429.13
2024-04-21T14:06:30.832Z,95437.47
2024-04-21T14:09:00.839Z,95427.97
2024-04-21T14:11:28.021Z,95441.50
2024-04-21T14:13:58.982Z,95438.47
2024-04-21T14:16:27.376Z,95451.47
2024-04-21T14:18:59.933Z,95452.94
2024-04-21T14:21:26.923Z,95453.56
2024-04-21T14:23:59.020Z,95450.69
2024-04-21T14:26:27.522Z,95459.59
2024-04-21T14:28:57.291Z,95457.44
2024-04-21T14:31:24.202Z,95460.31
2024-04-21T14:33:53.765Z,95460.44
2024-04-21T14:36:26.412Z,95459.38
2024-04-21T14:38:56.715Z,95465.78
2024-04-21T14:41:23.620Z,95460.78
2024-04-21T14:43:53.561Z,95472.16
2024-04-21T14:46:20.436Z,95464.38
2024-04-21T14:48:49.882Z,95471.31
2024-04-21T14:51:16.765Z,95465.44
2024-04-21T14:53:49.973Z,95468.09
2024-04-21T14:56:21.457Z,95470.03
2024-04-21T14:58:50.972Z,95469.63
2024-04-21T15:01:18.100Z,95470.44
2024-04-21T15:03:49.455Z,95470.38
2024-04-21T15:06:19.188Z,95469.28
2024-04-21T15:08:52.381Z,95481.94
2024-04-21T15:11:19.313Z,95471.47
2024-04-21T15:13:48.799Z,95478.88
2024-04-21T15:16:15.949Z,95479.59
2024-04-21T15:18:45.508Z,95486.81
2024-04-21T15:21:12.526Z,95486.75
2024-04-21T15:23:41.973Z,95484.34
2024-04-21T15:26:11.520Z,95494.69
2024-04-21T15:28:41.016Z,95491.56
2024-04-21T15:31:08.103Z,95487.53
2024-04-21T15:33:37.734Z,95497.38
2024-04-21T15:36:05.641Z,95492.34
2024-04-21T15:38:35.250Z,95492.47
2024-04-21T15:41:02.338Z,95495.06
2024-04-21T15:43:34.466Z,95491.47
2024-04-21T15:46:01.440Z,95495.41
2024-04-21T15:48:32.371Z,95497.75
2024-04-21T15:50:59.370Z,95497.59
2024-04-21T15:53:28.940Z,95505.41
2024-04-21T15:55:56.254Z,95504.63
2024-04-21T15:58:26.511Z,95498.47
2024-04-21T16:00:56.022Z,95513.47
2024-04-21T16:03:25.633Z,95507.03
2024-04-21T16:05:52.492Z,95501.72
2024-04-21T16:08:22.136Z,95504.97
2024-04-21T16:10:49.159Z,95500.91
2024-04-21T16:13:18.821Z,95512.63
2024-04-21T16:15:45.871Z,95505.72
2024-04-21T16:18:17.945Z,95506.63
2024-04-21T16:20:44.878Z,95510.75
2024-04-21T16:23:14.852Z,95511.53
2024-04-21T16:25:42.471Z,95516.34
2024-04-21T16:28:12.685Z,95513.34
2024-04-21T16:30:40.060Z,95510.47
2024-04-21T16:33:10.086Z,95516.69
2024-04-21T16:35:40.508Z,95510.88
2024-04-21T16:38:11.403Z,95521.41
2024-04-21T16:40:39.202Z,95516.78
2024-04-21T16:43:10.008Z,95519.94
2024-04-21T16:45:38.387Z,95529.66
2024-04-21T16:48:09.458Z,95535.59
2024-04-21T16:50:39.763Z,95526.41
2024-04-21T16:53:09.958Z,95524.44
2024-04-21T16:55:37.533Z,95529.03
2024-04-21T16:58:09.247Z,95522.63
2024-04-21T17:00:36.992Z,95527.94
2024-04-21T17:03:07.311Z,95524.19
2024-04-21T17:05:34.804Z,95528.50
2024-04-21T17:08:11.733Z,95531.50
2024-04-21T17:10:39.242Z,95530.88
2024-04-21T17:13:08.916Z,95531.06
2024-04-21T17:15:35.969Z,95536.88
2024-04-21T17:18:06.025Z,95534.25
2024-04-21T17:20:34.578Z,95535.91
2024-04-21T17:23:07.019Z,95534.16
2024-04-21T17:25:38.259Z,95537.59
2024-04-21T17:28:09.142Z,95538.25
2024-04-21T17:30:36.026Z,95541.22
2024-04-21T17:33:05.841Z,95545.31
2024-04-21T17:35:32.965Z,95546.13
2024-04-21T17:38:02.570Z,95548.75
2024-04-21T17:40:29.444Z,95550.75
2024-04-21T17:43:01.689Z,95555.97
2024-04-21T17:45:31.250Z,95554.34
2024-04-21T17:48:01.357Z,95559.25
2024-04-21T17:50:28.251Z,95560.59
2024-04-21T17:52:58.173Z,95566.47
2024-04-21T17:55:25.089Z,95560.91
2024-04-21T17:57:54.691Z,95565.19
2024-04-21T18:00:24.151Z,95569.44
2024-04-21T18:02:53.653Z,95570.41
2024-04-21T18:05:20.644Z,95565.19
2024-04-21T18:07:55.844Z,95566.47
2024-04-21T18:10:23.277Z,95572.19
2024-04-21T18:12:52.758Z,95569.06
2024-04-21T18:15:19.858Z,95578.22
2024-04-21T18:17:52.079Z,95581.03
2024-04-21T18:20:19.153Z,95575.28
2024-04-21T18:22:48.844Z,95581.16
2024-04-21T18:25:17.610Z,95586.41
2024-04-21T18:27:47.119Z,95577.22
2024-04-21T18:30:14.093Z,95573.28
2024-04-21T18:32:43.591Z,95582.13
2024-04-21T18:35:13.372Z,95578.00
2024-04-21T18:37:43.050Z,95589.91
2024-04-21T18:40:12.699Z,95590.56
2024-04-21T18:42:39.738Z,95597.09
2024-04-21T18:45:12.814Z,95599.69
2024-04-21T18:47:39.705Z,95597.91
2024-04-21T18:50:09.781Z,95617.94
2024-04-21T18:52:39.235Z,95608.09
2024-04-21T18:55:08.850Z,95617.44
2024-04-21T18:57:37.178Z,95628.91
2024-04-21T19:00:07.389Z,95636.03
2024-04-21T19:02:35.859Z,95641.38
2024-04-21T19:05:05.551Z,95645.69
2024-04-21T19:07:32.487Z,95645.06
2024-04-21T19:10:08.286Z,95647.22
2024-04-21T19:12:36.077Z,95653.00
2024-04-21T19:15:06.251Z,95656.28
2024-04-21T19:17:33.934Z,95654.47
2024-04-21T19:20:05.743Z,95652.38
2024-04-21T19:22:33.290Z,95664.44
2024-04-21T19:25:05.385Z,95655.31
2024-04-21T19:27:32.367Z,95660.06
2024-04-21T19:30:02.564Z,95658.41
2024-04-21T19:32:29.658Z,95657.00
2024-04-21T19:34:59.174Z,95657.91
2024-04-21T19:37:26.064Z,95660.00
2024-04-21T19:39:55.765Z,95664.03
2024-04-21T19:42:27.970Z,95655.66
2024-04-21T19:44:54.805Z,95656.63
2024-04-21T19:47:24.492Z,95660.44
2024-04-21T19:49:53.786Z,95655.56
2024-04-21T19:52:23.546Z,95661.75
2024-04-21T19:54:53.109Z,95660.59
2024-04-21T19:57:22.731Z,95658.13
2024-04-21T19:59:52.298Z,95661.88
2024-04-21T20:02:22.070Z,95654.44
2024-04-21T20:04:49.040Z,95659.09
2024-04-21T20:07:18.705Z,95668.75
2024-04-21T20:09:45.785Z,95666.88
2024-04-21T20:12:15.261Z,95670.91
2024-04-21T20:15:00.628Z,95670.09
2024-04-21T20:17:48.610Z,95675.56
2024-04-21T20:20:19.197Z,95675.53
2024-04-21T20:22:48.651Z,95672.03
2024-04-21T20:25:18.215Z,95671.72
2024-04-21T20:27:48.997Z,95668.75
2024-04-21T20:30:16.008Z,95670.38
2024-04-21T20:32:48.568Z,95671.34
2024-04-21T20:35:15.457Z,95677.16
2024-04-21T20:37:44.939Z,95672.50
2024-04-21T20:40:11.796Z,95672.06
2024-04-21T20:42:41.255Z,95672.25
2024-04-21T20:45:08.446Z,95670.88
2024-04-21T20:47:37.955Z,95668.56
2024-04-21T20:50:07.963Z,95677.75
2024-04-21T20:52:37.448Z,95672.59
2024-04-21T20:55:05.961Z,95676.59
2024-04-21T20:57:35.684Z,95678.91
2024-04-21T21:00:02.556Z,95670.22
2024-04-21T21:02:32.264Z,95680.69
2024-04-21T21:04:59.195Z,95675.16
2024-04-21T21:07:31.372Z,95677.34
2024-04-21T21:09:58.218Z,95673.75
2024-04-21T21:12:28.222Z,95677.03
2024-04-21T21:14:55.072Z,95681.22
2024-04-21T21:17:26.253Z,95681.38
2024-04-21T21:19:53.146Z,95674.44
2024-04-21T21:22:20.151Z,95676.59
2024-04-21T21:24:52.222Z,95676.31
2024-04-21T21:27:19.340Z,95668.81
2024-04-21T21:29:48.778Z,95674.28
2024-04-21T21:32:15.756Z,95674.81
2024-04-21T21:34:45.259Z,95680.56
2024-04-21T21:37:12.371Z,95678.09
2024-04-21T21:39:41.877Z,95681.06
2024-04-21T21:42:11.740Z,95676.38
2024-04-21T21:44:41.285Z,95686.38
2024-04-21T21:47:08.296Z,95682.31
2024-04-21T21:49:37.844Z,95679.34
2024-04-21T21:52:05.324Z,95675.38
2024-04-21T21:54:35.979Z,95680.69
2024-04-21T21:57:03.438Z,95681.50
2024-04-21T21:59:35.688Z,95673.34
2024-04-21T22:02:03.536Z,95678.13
2024-04-21T22:04:33.969Z,95675.34
2024-04-21T22:07:01.102Z,95677.00
2024-04-21T22:09:30.559Z,95682.22
2024-04-21T22:11:57.623Z,95681.69
2024-04-21T22:14:27.313Z,95681.19
2024-04-21T22:16:56.924Z,95687.03
2024-04-21T22:19:26.601Z,95685.88
2024-04-21T22:21:53.548Z,95687.00
2024-04-21T22:24:23.118Z,95686.28
2024-04-21T22:26:49.942Z,95695.13
2024-04-21T22:29:19.506Z,95694.84
2024-04-21T22:31:53.574Z,95687.94
2024-04-21T22:34:30.308Z,95692.66
2024-04-21T22:36:57.241Z,95684.97
2024-04-21T22:39:26.836Z,95692.81
2024-04-21T22:41:53.655Z,95693.47
2024-04-21T22:44:23.213Z,95695.13
2024-04-21T22:46:50.070Z,95692.50
2024-04-21T22:49:19.684Z,95693.78
2024-04-21T22:51:49.715Z,95695.19
2024-04-21T22:54:19.388Z,95699.91
2024-04-21T22:56:46.316Z,95703.50
2024-04-21T22:59:16.021Z,95696.88
2024-04-21T23:01:42.944Z,95698.84
2024-04-21T23:04:12.538Z,95694.59
2024-04-21T23:06:39.403Z,95702.50
2024-04-21T23:09:11.836Z,95702.50
2024-04-21T23:11:38.830Z,95701.00
2024-04-21T23:14:08.528Z,95702.38
2024-04-21T23:16:35.374Z,95702.53
2024-04-21T23:19:04.994Z,95693.72
2024-04-21T23:21:32.016Z,95690.44
2024-04-21T23:24:01.495Z,95692.91
2024-04-21T23:26:30.983Z,95682.75
2024-04-21T23:29:00.420Z,95686.88
2024-04-21T23:31:27.880Z,95684.91
2024-04-21T23:33:57.575Z,95690.44
2024-04-21T23:36:24.536Z,95684.63
2024-04-21T23:38:53.975Z,95679.69
2024-04-21T23:41:21.311Z,95681.34
2024-04-21T23:43:54.436Z,95684.09
2024-04-21T23:46:21.591Z,95680.50
2024-04-21T23:48:51.079Z,95690.16
2024-04-21T23:51:18.166Z,95683.56
2024-04-21T23:53:47.594Z,95680.97
2024-04-21T23:56:16.435Z,95680.56
2024-04-21T23:58:45.854Z,95678.94
